Terminal Aerodrome Forecast
Issued by NWS Tampa Bay Area, FL

Home | Current Version | Previous Version | Text Only | Print | Product List | Glossary On
Versions: 1 2 3 4 5 6 7 8 9 10 11 12 13 14 15 16 17 18 19
000
FTUS42 KTBW 122000 AAA
TAFFMY
TAF AMD
KFMY 122039Z 1221/1318 01006KT P6SM FEW040 BKN250
     FM130200 09004KT P6SM SCT130 BKN250
     FM131400 13007KT P6SM SCT020 SCT250
     FM131700 VRB05KT P6SM VCTS SCT035CB SCT250=

USA.gov is the U.S. government's official web portal to all federal, state and local government web resources and services.